Time;durP1;ratioP1;P1;durP2;ratioP2;P2;SDS_P1;SDS_P2;PMS_P1;PMS_P2;Temp;Humidity;BMP_temperature;BMP_pressure;BME280_temperature;BME280_humidity;BME280_pressure;Samples;Min_cycle;Max_cycle;Signal;HPM_P1;HPM_P2
2023/07/17 00:00:37;;;;;;;7.03;4.73;;;;;;;19.56;93.26;97740.91;6197750;28;20311;-39
2023/07/17 00:03:47;;;;;;;5.57;4.03;;;;;;;19.56;93.06;97743.63;6193504;28;20248;-39
2023/07/17 00:06:49;;;;;;;5.57;4.37;;;;;;;19.54;93.64;97745.78;6196765;28;20228;-39
2023/07/17 00:09:52;;;;;;;5.50;5.00;;;;;;;19.54;93.72;97745.78;6195465;28;20224;-39
2023/07/17 00:12:54;;;;;;;4.40;4.00;;;;;;;19.56;93.84;97743.63;6180400;28;20232;-40
2023/07/17 00:15:56;;;;;;;5.60;4.63;;;;;;;19.56;94.42;97749.00;6194853;28;20229;-39
2023/07/17 00:18:59;;;;;;;5.53;4.80;;;;;;;19.54;94.48;97754.69;6178365;28;20228;-40
2023/07/17 00:22:01;;;;;;;5.43;4.90;;;;;;;19.55;94.81;97761.69;6192263;28;20225;-39
2023/07/17 00:25:04;;;;;;;5.73;5.17;;;;;;;19.57;94.86;97766.81;6197914;28;20224;-40
2023/07/17 00:28:06;;;;;;;4.90;4.50;;;;;;;19.49;94.82;97743.97;6175101;28;20232;-40
2023/07/17 00:31:09;;;;;;;6.43;5.03;;;;;;;19.61;94.83;97756.25;6197466;28;20229;-41
2023/07/17 00:34:11;;;;;;;5.60;4.97;;;;;;;19.58;94.58;97760.31;6183896;28;20229;-42
2023/07/17 00:37:13;;;;;;;4.33;3.93;;;;;;;19.54;94.20;97741.19;6194719;28;20221;-40
2023/07/17 00:40:16;;;;;;;4.40;4.07;;;;;;;19.69;94.29;97764.47;6192433;28;20241;-40
2023/07/17 00:43:18;;;;;;;5.03;4.43;;;;;;;19.69;93.97;97758.25;6193310;28;20228;-40
2023/07/17 00:46:22;;;;;;;5.23;4.73;;;;;;;19.67;94.51;97763.16;6193712;28;20280;-41
2023/07/17 00:49:27;;;;;;;5.20;4.73;;;;;;;19.54;95.11;97756.59;6192186;28;20251;-40
2023/07/17 00:52:30;;;;;;;4.57;4.17;;;;;;;19.61;95.25;97770.56;6193745;28;20252;-40
2023/07/17 00:55:34;;;;;;;6.50;4.83;;;;;;;19.61;94.87;97769.78;6193516;28;20236;-42
2023/07/17 00:58:37;;;;;;;6.27;4.53;;;;;;;19.59;94.98;97778.97;6164001;28;20241;-40
2023/07/17 01:01:41;;;;;;;4.97;4.57;;;;;;;19.57;94.72;97786.53;6193195;28;20256;-40
2023/07/17 01:04:47;;;;;;;4.70;4.30;;;;;;;19.57;94.76;97783.03;6190973;28;20236;-40
2023/07/17 01:07:54;;;;;;;4.97;4.50;;;;;;;19.55;95.11;97790.63;6193615;28;20295;-40
2023/07/17 01:10:56;;;;;;;4.93;4.50;;;;;;;19.53;95.08;97788.22;6188432;28;20240;-40
2023/07/17 01:13:58;;;;;;;5.23;4.73;;;;;;;19.55;95.20;97790.63;6192063;28;20327;-40
2023/07/17 01:17:00;;;;;;;4.47;4.17;;;;;;;19.60;94.61;97782.47;6193388;28;20224;-41
2023/07/17 01:20:05;;;;;;;6.63;4.77;;;;;;;19.48;94.99;97774.00;6191755;28;20722;-41
2023/07/17 01:23:08;;;;;;;4.73;4.23;;;;;;;19.66;94.32;97781.28;6189692;28;20598;-40
2023/07/17 01:26:15;;;;;;;5.20;4.47;;;;;;;19.71;93.86;97797.41;6191075;28;20220;-40
2023/07/17 01:29:18;;;;;;;4.40;4.00;;;;;;;19.92;92.43;97787.00;6174239;28;20772;-40
2023/07/17 01:32:20;;;;;;;5.13;4.30;;;;;;;20.06;91.85;97801.34;6191531;28;20233;-40
2023/07/17 01:35:23;;;;;;;3.93;3.53;;;;;;;20.13;90.97;97792.81;6192118;28;20225;-40
2023/07/17 01:38:25;;;;;;;4.47;4.03;;;;;;;20.22;90.85;97793.72;6180847;28;20231;-40
2023/07/17 01:41:27;;;;;;;4.00;3.70;;;;;;;20.25;90.67;97795.84;6191213;28;20229;-40
2023/07/17 01:44:32;;;;;;;5.03;3.80;;;;;;;20.35;89.76;97792.13;6198580;28;20220;-40
2023/07/17 01:47:34;;;;;;;4.63;3.47;;;;;;;20.40;89.29;97785.81;6190838;28;20233;-41
2023/07/17 01:50:37;;;;;;;4.83;3.53;;;;;;;20.44;88.96;97786.78;6177165;28;20303;-40
2023/07/17 01:53:39;;;;;;;4.77;3.13;;;;;;;20.44;88.89;97786.78;6191236;28;20247;-40
2023/07/17 01:56:41;;;;;;;3.53;3.23;;;;;;;20.45;88.43;97785.69;6196616;28;20240;-41
2023/07/17 01:59:44;;;;;;;4.70;3.10;;;;;;;20.39;88.88;97778.78;6193690;28;20229;-41
2023/07/17 02:02:46;;;;;;;6.10;3.63;;;;;;;20.48;87.33;97796.72;6192684;28;20234;-41
2023/07/17 02:05:52;;;;;;;3.43;3.13;;;;;;;20.60;87.00;97801.63;6188297;28;20225;-41
2023/07/17 02:08:54;;;;;;;4.10;3.50;;;;;;;20.93;82.59;97782.47;6190998;28;20225;-40
2023/07/17 02:11:56;;;;;;;5.73;3.00;;;;;;;21.46;78.98;97787.19;6191560;28;20232;-40
2023/07/17 02:14:59;;;;;;;3.70;3.03;;;;;;;21.64;77.00;97780.75;6191876;28;20243;-40
2023/07/17 02:18:02;;;;;;;3.40;2.60;;;;;;;21.64;77.66;97776.13;6188547;28;20229;-42
2023/07/17 02:21:04;;;;;;;7.80;2.97;;;;;;;21.69;76.64;97787.97;6190583;28;20371;-40
2023/07/17 02:24:06;;;;;;;4.17;3.30;;;;;;;21.66;77.76;97786.66;6181733;28;20235;-40
2023/07/17 02:27:09;;;;;;;3.03;2.50;;;;;;;21.58;77.87;97788.22;6188714;28;20355;-40
2023/07/17 02:30:11;;;;;;;4.77;2.83;;;;;;;21.48;78.64;97776.84;6192895;28;20300;-40
2023/07/17 02:33:13;;;;;;;5.73;2.90;;;;;;;21.25;80.72;97786.88;6162566;28;20616;-40
2023/07/17 02:36:16;;;;;;;4.57;3.10;;;;;;;21.17;80.41;97779.47;6191159;28;20209;-40
2023/07/17 02:39:18;;;;;;;3.07;2.87;;;;;;;21.26;79.69;97777.63;6192794;28;20348;-40
2023/07/17 02:42:21;;;;;;;3.43;3.13;;;;;;;21.15;80.08;97771.66;6180603;28;20760;-40
2023/07/17 02:45:23;;;;;;;3.60;3.30;;;;;;;21.01;80.52;97766.28;6192739;28;20232;-40
2023/07/17 02:48:25;;;;;;;4.87;3.00;;;;;;;21.05;80.70;97780.03;6189945;28;20237;-40
2023/07/17 02:51:27;;;;;;;5.87;3.17;;;;;;;20.97;81.67;97784.25;6190709;28;20247;-40
2023/07/17 02:54:30;;;;;;;5.03;3.10;;;;;;;20.90;81.68;97792.03;6194562;28;20236;-40
2023/07/17 02:57:36;;;;;;;3.23;2.93;;;;;;;20.79;82.59;97794.16;6197578;28;20236;-40
2023/07/17 03:00:38;;;;;;;3.57;2.63;;;;;;;20.68;83.29;97798.19;6196581;28;20236;-40
2023/07/17 03:03:41;;;;;;;5.57;3.03;;;;;;;20.64;83.34;97799.09;6196487;28;20319;-40
2023/07/17 03:06:43;;;;;;;2.93;2.70;;;;;;;20.50;84.21;97793.75;6195954;28;20237;-40
2023/07/17 03:09:45;;;;;;;3.20;2.80;;;;;;;20.44;84.63;97794.91;6197859;28;20239;-40
2023/07/17 03:12:50;;;;;;;5.13;3.10;;;;;;;20.41;84.41;97806.34;6193876;28;20229;-40
2023/07/17 03:15:55;;;;;;;6.03;3.07;;;;;;;20.40;85.02;97797.44;6194580;28;20346;-39
2023/07/17 03:18:58;;;;;;;3.30;3.00;;;;;;;20.24;84.99;97780.69;6161684;28;20241;-40
2023/07/17 03:22:00;;;;;;;3.77;3.47;;;;;;;20.29;85.11;97802.22;6189964;28;20260;-40
2023/07/17 03:25:06;;;;;;;3.30;3.00;;;;;;;20.45;84.03;97815.47;6187574;28;20731;-39
2023/07/17 03:28:10;;;;;;;4.13;3.13;;;;;;;20.47;84.13;97816.78;6193906;28;20271;-40
2023/07/17 03:31:12;;;;;;;3.93;3.10;;;;;;;20.50;84.53;97820.81;6195887;28;20698;-40
2023/07/17 03:34:16;;;;;;;3.40;2.80;;;;;;;20.52;84.20;97824.00;6195965;28;20243;-40
2023/07/17 03:37:18;;;;;;;3.77;2.93;;;;;;;20.59;83.60;97819.78;6191098;28;20236;-40
2023/07/17 03:40:20;;;;;;;3.47;3.17;;;;;;;20.60;83.61;97821.38;6197377;28;20245;-40
2023/07/17 03:43:23;;;;;;;3.07;2.70;;;;;;;20.56;83.72;97822.28;6196203;28;20236;-40
2023/07/17 03:46:25;;;;;;;3.80;3.30;;;;;;;20.40;84.06;97808.25;6194814;28;20244;-40
2023/07/17 03:49:32;;;;;;;3.77;3.00;;;;;;;20.44;83.97;97827.38;6195017;28;20286;-40
2023/07/17 03:52:35;;;;;;;3.73;3.20;;;;;;;20.44;84.66;97840.91;6194618;28;20244;-40
2023/07/17 03:55:38;;;;;;;4.60;2.90;;;;;;;20.56;81.69;97820.38;6181283;28;20220;-40
2023/07/17 03:58:41;;;;;;;3.33;3.03;;;;;;;21.08;78.52;97841.72;6193163;28;20235;-40
2023/07/17 04:01:43;;;;;;;3.57;3.10;;;;;;;21.19;78.49;97842.28;6194176;28;20335;-40
2023/07/17 04:04:46;;;;;;;3.03;2.20;;;;;;;21.54;75.35;97837.97;6197830;28;20319;-41
2023/07/17 04:07:49;;;;;;;3.00;2.53;;;;;;;21.57;75.37;97835.41;6193862;28;20243;-40
2023/07/17 04:10:52;;;;;;;3.23;2.70;;;;;;;21.55;75.19;97845.78;6175181;28;20238;-40
2023/07/17 04:13:54;;;;;;;3.03;2.73;;;;;;;21.49;74.91;97836.16;6194251;28;20666;-39
2023/07/17 04:16:57;;;;;;;3.33;2.73;;;;;;;21.59;75.56;97862.22;6193266;28;20288;-39
2023/07/17 04:19:59;;;;;;;2.60;2.33;;;;;;;21.59;76.42;97854.09;6162484;28;20233;-40
2023/07/17 04:23:02;;;;;;;3.23;2.57;;;;;;;21.43;77.93;97858.25;6181089;28;20232;-40
2023/07/17 04:26:04;;;;;;;3.17;2.87;;;;;;;21.35;77.31;97868.75;6196563;28;20248;-40
2023/07/17 04:29:06;;;;;;;2.93;2.63;;;;;;;21.41;77.65;97868.63;6192518;28;20228;-39
2023/07/17 04:32:09;;;;;;;3.80;2.80;;;;;;;21.38;77.55;97872.78;6195649;28;20236;-40
2023/07/17 04:35:11;;;;;;;2.77;2.50;;;;;;;21.62;75.53;97867.84;6175772;28;20251;-40
2023/07/17 04:38:13;;;;;;;3.10;2.73;;;;;;;21.73;75.05;97862.16;6197612;28;20213;-40
2023/07/17 04:41:16;;;;;;;3.73;3.40;;;;;;;21.96;73.40;97858.28;6175493;28;20233;-40
2023/07/17 04:44:19;;;;;;;3.27;2.97;;;;;;;21.94;74.49;97865.16;6193062;28;20245;-40
2023/07/17 04:47:21;;;;;;;3.33;3.00;;;;;;;21.99;74.25;97870.44;6197066;28;20221;-40
2023/07/17 04:50:27;;;;;;;3.83;2.80;;;;;;;22.09;72.79;97853.88;6194433;28;20315;-39
2023/07/17 04:53:31;;;;;;;3.43;2.90;;;;;;;22.09;73.20;97867.44;6176624;28;20225;-40
2023/07/17 04:56:33;;;;;;;3.83;3.20;;;;;;;22.04;73.95;97873.81;6174794;28;20240;-40
2023/07/17 04:59:39;;;;;;;3.67;3.07;;;;;;;21.95;74.86;97869.44;6180778;28;20295;-41
2023/07/17 05:02:41;;;;;;;2.90;2.70;;;;;;;21.94;74.88;97862.44;6178082;28;20275;-40
2023/07/17 05:05:48;;;;;;;3.53;3.17;;;;;;;22.00;73.70;97861.19;6195800;28;20239;-40
2023/07/17 05:08:51;;;;;;;3.40;3.10;;;;;;;22.27;72.11;97869.16;6172614;28;20290;-40
2023/07/17 05:11:54;;;;;;;2.83;2.43;;;;;;;22.29;72.12;97871.56;6176993;28;20726;-40
2023/07/17 05:14:58;;;;;;;3.40;2.83;;;;;;;22.54;70.78;97875.47;6192964;28;20244;-40
2023/07/17 05:18:00;;;;;;;2.63;2.43;;;;;;;22.57;71.03;97878.38;6188301;28;20235;-40
2023/07/17 05:21:03;;;;;;;3.93;3.17;;;;;;;22.73;70.43;97877.94;6177013;28;20267;-40
2023/07/17 05:24:05;;;;;;;2.83;2.63;;;;;;;22.66;70.38;97879.19;6189861;28;20220;-40
2023/07/17 05:27:08;;;;;;;3.70;2.97;;;;;;;22.80;70.43;97878.25;6175976;28;20229;-41
2023/07/17 05:30:11;;;;;;;3.23;2.97;;;;;;;22.89;69.41;97868.22;6178861;28;20231;-40
2023/07/17 05:33:13;;;;;;;3.40;3.00;;;;;;;22.97;69.41;97882.97;6192231;28;20225;-40
2023/07/17 05:36:16;;;;;;;4.07;3.00;;;;;;;23.08;68.95;97873.38;6190224;28;20224;-40
2023/07/17 05:39:20;;;;;;;3.40;3.10;;;;;;;22.92;68.45;97854.03;6195665;28;20212;-40
2023/07/17 05:42:24;;;;;;;4.35;3.00;;;;;;;23.11;69.08;97880.91;6159211;28;20619;-40
2023/07/17 05:45:26;;;;;;;3.17;2.87;;;;;;;23.12;68.25;97856.13;6173499;28;20235;-39
2023/07/17 05:48:30;;;;;;;3.17;2.78;;;;;;;23.18;69.07;97883.94;6190961;28;20237;-40
2023/07/17 05:51:32;;;;;;;2.85;2.63;;;;;;;23.28;68.44;97874.66;6191887;28;20741;-40
2023/07/17 05:54:34;;;;;;;3.08;2.70;;;;;;;23.21;68.19;97869.72;6173642;28;20630;-40
2023/07/17 05:57:37;;;;;;;3.58;2.53;;;;;;;23.38;67.26;97858.03;6192813;28;20294;-39
2023/07/17 06:00:39;;;;;;;3.47;3.00;;;;;;;23.28;68.35;97871.94;6179118;28;20224;-41
2023/07/17 06:03:41;;;;;;;3.35;2.58;;;;;;;23.35;68.01;97866.81;6179890;28;20875;-44
2023/07/17 06:06:44;;;;;;;3.20;2.90;;;;;;;23.45;67.74;97874.69;6192202;28;20598;-39
2023/07/17 06:09:46;;;;;;;2.70;2.47;;;;;;;23.48;67.86;97884.09;6187749;28;20514;-38
2023/07/17 06:12:48;;;;;;;3.65;2.97;;;;;;;23.51;67.17;97892.41;6183589;28;20240;-39
2023/07/17 06:15:51;;;;;;;2.95;2.70;;;;;;;23.79;65.31;97873.88;6194774;28;20714;-39
2023/07/17 06:18:53;;;;;;;3.08;2.78;;;;;;;23.74;66.29;97893.03;6193273;28;20323;-39
2023/07/17 06:21:55;;;;;;;3.47;2.83;;;;;;;23.71;66.34;97890.19;6190254;28;20232;-39
2023/07/17 06:24:57;;;;;;;3.67;2.83;;;;;;;23.86;65.67;97893.19;6189460;28;20245;-39
2023/07/17 06:28:00;;;;;;;3.60;2.85;;;;;;;23.94;64.61;97888.88;6193420;28;20788;-39
2023/07/17 06:31:02;;;;;;;3.40;3.10;;;;;;;24.07;64.39;97889.78;6196645;28;20232;-39
2023/07/17 06:34:04;;;;;;;3.28;2.63;;;;;;;23.98;64.93;97892.53;6197409;28;20231;-39
2023/07/17 06:37:07;;;;;;;2.85;2.63;;;;;;;23.89;65.92;97891.75;6198885;28;20236;-39
2023/07/17 06:40:10;;;;;;;3.42;3.03;;;;;;;23.89;66.49;97892.56;6189257;28;20240;-39
2023/07/17 06:43:13;;;;;;;2.92;2.72;;;;;;;23.98;65.85;97894.44;6203759;28;20734;-39
2023/07/17 06:46:16;;;;;;;4.43;2.83;;;;;;;24.13;64.71;97905.59;6195802;28;20232;-40
2023/07/17 06:49:19;;;;;;;2.90;2.63;;;;;;;24.12;65.34;97905.94;6198297;28;20705;-40
2023/07/17 06:52:25;;;;;;;3.38;2.65;;;;;;;24.28;64.24;97907.00;6197641;28;20319;-39
2023/07/17 06:55:27;;;;;;;3.63;2.90;;;;;;;24.40;63.46;97918.06;6197527;28;20698;-39
2023/07/17 06:58:30;;;;;;;3.50;2.90;;;;;;;24.45;62.65;97909.69;6198559;28;20239;-40
2023/07/17 07:01:32;;;;;;;3.78;2.88;;;;;;;24.55;62.65;97905.81;6190935;28;20242;-40
2023/07/17 07:04:34;;;;;;;2.95;2.47;;;;;;;24.56;62.92;97904.69;6197772;28;20254;-39
2023/07/17 07:07:37;;;;;;;3.50;2.85;;;;;;;24.74;60.81;97916.31;6201837;28;20243;-39
2023/07/17 07:10:39;;;;;;;3.50;2.95;;;;;;;24.83;60.50;97919.78;6196939;28;20710;-39
2023/07/17 07:13:42;;;;;;;4.47;2.88;;;;;;;24.92;60.61;97920.50;6183187;28;20236;-39
2023/07/17 07:16:48;;;;;;;3.97;2.80;;;;;;;25.00;59.07;97901.72;6199089;28;20290;-39
2023/07/17 07:19:51;;;;;;;5.25;3.00;;;;;;;25.02;59.73;97916.59;6184939;28;20792;-39
2023/07/17 07:22:53;;;;;;;4.38;3.08;;;;;;;25.01;60.66;97923.19;6195674;28;20260;-39
2023/07/17 07:25:55;;;;;;;3.55;3.00;;;;;;;25.00;60.41;97905.25;6179496;28;20588;-39
2023/07/17 07:28:58;;;;;;;4.03;3.50;;;;;;;25.07;60.30;97919.16;6179787;28;20240;-39
2023/07/17 07:32:01;;;;;;;3.15;2.80;;;;;;;25.03;61.70;97922.88;6182003;28;20741;-40
2023/07/17 07:35:04;;;;;;;3.67;3.38;;;;;;;25.19;60.56;97923.91;6197666;28;20710;-40
2023/07/17 07:38:07;;;;;;;3.95;3.17;;;;;;;24.98;61.71;97929.31;6199474;28;20244;-39
2023/07/17 07:41:09;;;;;;;3.03;2.72;;;;;;;24.86;62.87;97931.94;6190473;28;20291;-39
2023/07/17 07:44:11;;;;;;;4.13;3.10;;;;;;;24.73;63.72;97936.50;6180136;28;20593;-40
2023/07/17 07:47:13;;;;;;;3.45;3.13;;;;;;;24.64;64.50;97927.56;6193738;28;20284;-40
2023/07/17 07:50:16;;;;;;;3.33;3.03;;;;;;;24.68;63.16;97932.03;6194536;28;20239;-39
2023/07/17 07:53:18;;;;;;;3.20;2.90;;;;;;;24.63;63.65;97940.41;6183781;28;20635;-39
2023/07/17 07:56:21;;;;;;;6.07;3.00;;;;;;;24.75;63.04;97939.69;6193013;28;20868;-39
2023/07/17 07:59:23;;;;;;;4.10;3.50;;;;;;;24.87;63.40;97939.78;6198670;28;20233;-39
2023/07/17 08:02:25;;;;;;;4.45;3.63;;;;;;;24.99;61.99;97935.56;6194024;28;20239;-39
2023/07/17 08:05:28;;;;;;;4.65;3.33;;;;;;;25.14;58.72;97943.19;6191218;28;20763;-39
2023/07/17 08:08:31;;;;;;;5.40;3.53;;;;;;;25.06;58.63;97947.53;6193276;28;20363;-39
2023/07/17 08:11:34;;;;;;;3.85;3.20;;;;;;;25.11;58.50;97949.31;6193254;28;20359;-38
2023/07/17 08:14:36;;;;;;;3.47;3.17;;;;;;;25.00;58.21;97954.31;6196722;28;20246;-39
2023/07/17 08:17:38;;;;;;;4.40;3.28;;;;;;;24.78;58.49;97947.22;6194935;28;20647;-39
2023/07/17 08:20:40;;;;;;;4.30;3.40;;;;;;;24.86;57.62;97951.81;6194102;28;20236;-39
2023/07/17 08:23:43;;;;;;;4.13;3.10;;;;;;;24.89;59.75;97962.06;6183759;28;20306;-39
2023/07/17 08:26:46;;;;;;;3.97;3.47;;;;;;;25.13;57.98;97961.50;6192081;28;20228;-39
2023/07/17 08:29:51;;;;;;;3.70;3.33;;;;;;;25.06;59.57;97968.53;6189868;28;20237;-39
2023/07/17 08:32:55;;;;;;;4.60;2.97;;;;;;;25.03;59.05;97971.94;6196078;28;20247;-39
2023/07/17 08:35:58;;;;;;;4.00;3.65;;;;;;;25.11;60.46;97965.66;6190075;28;20347;-39
2023/07/17 08:39:00;;;;;;;3.40;3.10;;;;;;;25.24;59.52;97969.28;6192378;28;20225;-39
2023/07/17 08:42:03;;;;;;;4.10;3.78;;;;;;;25.43;59.41;97962.25;6192860;28;20244;-39
2023/07/17 08:45:08;;;;;;;4.00;3.60;;;;;;;25.60;59.02;97966.75;6190522;28;20217;-39
2023/07/17 08:48:12;;;;;;;3.70;3.40;;;;;;;25.61;58.98;97973.81;6191735;28;20325;-39
2023/07/17 08:51:15;;;;;;;4.32;3.42;;;;;;;25.60;58.10;97969.50;6192190;28;20300;-39
2023/07/17 08:54:18;;;;;;;3.78;3.38;;;;;;;25.56;58.49;97971.28;6193934;28;20233;-39
2023/07/17 08:57:32;;;;;;;7.70;3.72;;;;;;;25.60;58.16;97972.22;6193233;28;20280;-39
2023/07/17 09:00:36;;;;;;;4.30;3.45;;;;;;;25.50;57.52;97958.97;6192063;28;20316;-39
2023/07/17 09:03:40;;;;;;;4.20;3.55;;;;;;;25.52;58.46;97981.28;6192925;28;20741;-39
2023/07/17 09:06:42;;;;;;;3.72;3.42;;;;;;;25.56;59.27;97997.75;6175792;28;20281;-39
2023/07/17 09:09:44;;;;;;;5.60;3.80;;;;;;;25.48;59.72;97989.31;6193955;28;20220;-39
2023/07/17 09:12:58;;;;;;;4.28;3.88;;;;;;;25.40;59.94;98000.28;6190351;28;20237;-39
2023/07/17 09:16:15;;;;;;;3.92;3.50;;;;;;;25.38;61.00;97997.91;6190269;28;20611;-39
2023/07/17 09:19:21;;;;;;;5.88;3.65;;;;;;;25.38;60.77;98008.03;6194459;28;20347;-40
2023/07/17 09:22:26;;;;;;;3.75;3.40;;;;;;;25.68;58.79;98015.03;6191630;28;20919;-39
2023/07/17 09:25:31;;;;;;;3.72;3.35;;;;;;;25.84;57.07;98015.25;6195608;28;20241;-40
2023/07/17 09:28:44;;;;;;;4.75;3.40;;;;;;;25.74;57.59;98018.34;6190177;28;20316;-40
2023/07/17 09:31:46;;;;;;;4.30;3.45;;;;;;;25.68;57.32;98017.75;6175800;28;20247;-39
2023/07/17 09:35:04;;;;;;;6.05;3.60;;;;;;;25.52;57.94;98018.66;6188620;28;20233;-39
2023/07/17 09:38:09;;;;;;;4.30;3.47;;;;;;;25.51;58.89;98014.34;6191916;28;20265;-39
2023/07/17 09:41:26;;;;;;;4.35;3.30;;;;;;;25.61;58.71;98016.66;6194606;28;20229;-38
2023/07/17 09:44:32;;;;;;;4.10;3.42;;;;;;;25.67;58.46;98005.25;6193566;28;20229;-39
2023/07/17 09:47:35;;;;;;;4.13;3.72;;;;;;;25.64;58.91;98010.56;6191009;28;20286;-39
2023/07/17 09:50:38;;;;;;;4.13;3.72;;;;;;;25.68;58.72;98017.75;6184442;28;20667;-39
2023/07/17 09:53:41;;;;;;;4.60;3.67;;;;;;;25.84;57.88;98020.69;6192434;28;20233;-39
2023/07/17 09:56:44;;;;;;;4.80;3.30;;;;;;;25.75;58.20;98028.16;6194208;28;20228;-38
2023/07/17 09:59:49;;;;;;;4.38;3.85;;;;;;;25.64;58.04;98035.13;6194524;28;20780;-39
2023/07/17 10:02:57;;;;;;;3.75;3.35;;;;;;;25.58;60.04;98036.44;6185388;28;20596;-38
2023/07/17 10:06:00;;;;;;;9.02;3.53;;;;;;;25.52;60.14;98022.22;6198192;28;20709;-38
2023/07/17 10:09:04;;;;;;;5.18;4.10;;;;;;;25.51;60.35;98019.78;6195965;28;20243;-38
2023/07/17 10:12:07;;;;;;;6.95;4.07;;;;;;;25.53;61.30;98017.53;6187979;28;20221;-39
2023/07/17 10:15:11;;;;;;;4.78;3.90;;;;;;;25.60;62.74;98026.78;6192616;28;20240;-39
2023/07/17 10:18:14;;;;;;;4.18;3.78;;;;;;;25.97;62.46;98029.75;6187703;28;20217;-39
2023/07/17 10:21:17;;;;;;;4.65;4.25;;;;;;;25.98;59.52;98029.41;6192373;28;20212;-38
2023/07/17 10:24:24;;;;;;;5.40;4.90;;;;;;;25.94;60.67;98033.16;6190225;28;20278;-39
2023/07/17 10:27:37;;;;;;;5.78;5.28;;;;;;;25.84;62.09;98009.78;6188241;28;20229;-39
2023/07/17 10:30:48;;;;;;;6.25;5.65;;;;;;;25.96;63.64;98020.78;6189517;28;20703;-39
2023/07/17 10:33:58;;;;;;;6.70;5.18;;;;;;;26.07;59.81;98021.16;6193767;28;20233;-39
2023/07/17 10:37:02;;;;;;;5.93;5.13;;;;;;;25.98;60.76;98017.69;6191259;28;20244;-39
2023/07/17 10:40:25;;;;;;;7.00;5.75;;;;;;;26.06;58.99;98024.19;6189371;28;20642;-39
2023/07/17 10:43:27;;;;;;;6.57;5.80;;;;;;;26.05;59.22;98019.88;6173381;28;20272;-39
2023/07/17 10:46:32;;;;;;;6.00;5.38;;;;;;;25.82;59.37;97992.16;6189391;28;20240;-39
2023/07/17 10:49:34;;;;;;;5.80;5.10;;;;;;;26.08;60.56;97995.44;6194529;28;20235;-39
2023/07/17 10:52:36;;;;;;;4.57;4.18;;;;;;;26.42;55.15;97994.34;6191126;28;20694;-39
2023/07/17 10:55:39;;;;;;;5.25;4.72;;;;;;;26.31;55.12;97968.56;6185771;28;20302;-39
2023/07/17 10:58:48;;;;;;;5.10;4.60;;;;;;;26.36;59.38;97983.94;6190117;28;20321;-39
2023/07/17 11:01:50;;;;;;;4.88;4.45;;;;;;;26.44;57.09;97978.38;6191317;28;20239;-39
2023/07/17 11:04:57;;;;;;;5.35;4.85;;;;;;;26.45;55.80;97973.72;6190069;28;20236;-39
2023/07/17 11:07:59;;;;;;;5.50;4.80;;;;;;;26.53;57.17;97989.22;6192172;28;20613;-39
2023/07/17 11:11:02;;;;;;;4.55;4.15;;;;;;;26.56;60.04;97983.09;6192981;28;20255;-39
2023/07/17 11:14:04;;;;;;;6.20;4.38;;;;;;;26.48;57.73;97979.31;6191254;28;20241;-40
2023/07/17 11:17:10;;;;;;;4.95;4.55;;;;;;;26.69;57.32;97987.41;6196098;28;20244;-39
2023/07/17 11:20:20;;;;;;;5.07;4.57;;;;;;;26.50;55.31;97978.97;6194031;28;20237;-39
2023/07/17 11:23:23;;;;;;;5.40;4.90;;;;;;;26.28;56.83;97969.22;6197868;28;20228;-39
2023/07/17 11:26:27;;;;;;;4.50;4.10;;;;;;;26.31;57.61;97968.56;6197843;28;20232;-40
2023/07/17 11:29:30;;;;;;;5.57;5.00;;;;;;;26.60;58.19;97975.00;6194759;28;20244;-39
2023/07/17 11:32:34;;;;;;;4.53;4.22;;;;;;;26.68;55.24;97968.63;6193944;28;20232;-39
2023/07/17 11:35:37;;;;;;;5.25;4.50;;;;;;;26.81;55.79;97964.78;6196573;28;20333;-39
2023/07/17 11:38:39;;;;;;;5.15;4.65;;;;;;;26.73;56.88;97971.16;6190721;28;20292;-39
2023/07/17 11:41:46;;;;;;;5.68;4.40;;;;;;;26.97;57.30;97975.81;6197069;28;20608;-39
2023/07/17 11:44:58;;;;;;;4.75;4.35;;;;;;;26.70;57.69;97953.50;6195216;28;20243;-39
2023/07/17 11:48:02;;;;;;;6.30;4.60;;;;;;;26.67;59.53;97969.78;6193937;28;20621;-40
2023/07/17 11:51:05;;;;;;;4.97;4.35;;;;;;;26.82;57.75;97985.50;6191616;28;20590;-40
2023/07/17 11:54:07;;;;;;;4.85;4.40;;;;;;;26.91;55.99;97988.94;6195499;28;20216;-39
2023/07/17 11:57:10;;;;;;;4.60;4.25;;;;;;;27.10;56.55;97977.44;6191023;28;20629;-39
2023/07/17 12:00:13;;;;;;;4.93;4.43;;;;;;;27.23;55.60;97986.44;6197515;28;20217;-39
2023/07/17 12:03:16;;;;;;;4.63;4.32;;;;;;;27.10;55.92;97960.25;6193333;28;20245;-39
2023/07/17 12:06:18;;;;;;;7.53;4.32;;;;;;;26.92;58.92;97985.06;6194182;28;20240;-39
2023/07/17 12:09:21;;;;;;;4.80;4.30;;;;;;;27.10;55.68;97993.88;6193489;28;20220;-39
2023/07/17 12:12:23;;;;;;;4.20;3.80;;;;;;;27.23;54.16;98000.09;6200540;28;20229;-40
2023/07/17 12:15:27;;;;;;;5.53;4.00;;;;;;;26.87;55.79;98015.34;6196814;28;20221;-38
2023/07/17 12:18:29;;;;;;;3.60;3.35;;;;;;;26.80;56.41;98015.13;6197083;28;20858;-39
2023/07/17 12:21:32;;;;;;;5.60;3.88;;;;;;;26.59;57.93;97998.78;6197059;28;20239;-39
2023/07/17 12:24:39;;;;;;;4.60;3.58;;;;;;;26.60;56.21;98008.59;6197810;28;20235;-39
2023/07/17 12:27:42;;;;;;;3.92;3.63;;;;;;;26.54;57.46;97995.47;6194737;28;20237;-39
2023/07/17 12:30:45;;;;;;;4.10;3.40;;;;;;;26.77;55.01;97983.00;6200062;28;20260;-39
2023/07/17 12:33:48;;;;;;;4.30;3.80;;;;;;;26.59;56.44;97985.13;6198502;28;20233;-39
2023/07/17 12:36:50;;;;;;;4.28;3.42;;;;;;;26.34;57.52;97984.25;6195291;28;20288;-39
2023/07/17 12:39:52;;;;;;;4.43;3.97;;;;;;;26.10;57.58;97986.91;6196675;28;20240;-38
2023/07/17 12:42:58;;;;;;;3.80;3.42;;;;;;;26.15;56.80;97981.22;6192405;28;20263;-39
2023/07/17 12:46:00;;;;;;;3.95;3.65;;;;;;;26.21;58.42;97985.38;6191718;28;20930;-39
2023/07/17 12:49:02;;;;;;;3.55;3.25;;;;;;;26.30;58.92;97988.00;6191307;28;20612;-39
2023/07/17 12:52:04;;;;;;;4.93;3.55;;;;;;;26.40;58.57;97985.66;6194524;28;20233;-39
2023/07/17 12:55:07;;;;;;;3.50;3.20;;;;;;;26.26;58.20;97982.44;6192544;28;20239;-39
2023/07/17 12:58:09;;;;;;;3.65;3.35;;;;;;;26.34;58.45;97978.78;6181346;28;20232;-39
2023/07/17 13:01:12;;;;;;;4.30;3.33;;;;;;;26.41;59.61;97978.25;6194950;28;20364;-39
2023/07/17 13:04:14;;;;;;;3.38;3.08;;;;;;;26.61;59.30;97985.59;6191881;28;20236;-39
2023/07/17 13:07:16;;;;;;;3.65;3.30;;;;;;;26.56;59.09;97983.09;6196922;28;20243;-39
2023/07/17 13:10:19;;;;;;;4.43;3.28;;;;;;;26.30;58.25;97966.13;6193256;28;20582;-39
2023/07/17 13:13:21;;;;;;;3.50;3.20;;;;;;;26.20;59.12;97986.47;6192653;28;20732;-39
2023/07/17 13:16:23;;;;;;;2.95;2.75;;;;;;;26.17;60.06;97987.19;6177798;28;20609;-39
2023/07/17 13:19:25;;;;;;;4.72;3.13;;;;;;;26.21;60.69;97999.03;6189891;28;20244;-38
2023/07/17 13:22:27;;;;;;;3.35;3.05;;;;;;;26.20;60.70;97997.41;6194133;28;20236;-38
2023/07/17 13:25:30;;;;;;;2.95;2.70;;;;;;;26.22;60.79;97998.69;6194816;28;20842;-38
2023/07/17 13:28:34;;;;;;;3.92;3.58;;;;;;;26.40;60.37;97993.84;6189278;28;20236;-39
2023/07/17 13:31:36;;;;;;;4.25;3.80;;;;;;;26.24;60.83;97973.75;6189543;28;20729;-38
2023/07/17 13:34:39;;;;;;;5.93;4.13;;;;;;;26.38;59.43;97998.84;6187537;28;20240;-39
2023/07/17 13:37:41;;;;;;;3.70;3.40;;;;;;;26.49;58.68;97994.56;6196028;28;20239;-39
2023/07/17 13:40:43;;;;;;;3.95;3.55;;;;;;;26.62;59.57;97998.13;6193257;28;20238;-39
2023/07/17 13:43:46;;;;;;;3.85;3.53;;;;;;;26.71;56.19;97987.09;6194586;28;20236;-39
2023/07/17 13:46:49;;;;;;;3.65;3.35;;;;;;;26.70;56.69;97980.03;6174942;28;20244;-39
2023/07/17 13:49:51;;;;;;;3.60;3.28;;;;;;;26.82;54.67;97963.63;6189739;28;20607;-39
2023/07/17 13:52:53;;;;;;;4.60;3.80;;;;;;;26.92;54.82;97976.06;6193442;28;20319;-39
2023/07/17 13:55:55;;;;;;;3.47;2.78;;;;;;;27.11;55.34;97981.78;6195289;28;20229;-39
2023/07/17 13:59:01;;;;;;;3.33;3.03;;;;;;;27.20;54.57;97955.09;6182393;28;20366;-39
2023/07/17 14:02:03;;;;;;;3.28;2.97;;;;;;;27.44;55.22;97962.47;6185832;28;20248;-39
2023/07/17 14:05:06;;;;;;;3.88;3.50;;;;;;;27.29;55.28;97957.72;6199805;28;20905;-40
2023/07/17 14:08:08;;;;;;;4.05;3.00;;;;;;;27.41;53.40;97951.41;6193448;28;20239;-39
2023/07/17 14:11:11;;;;;;;2.65;2.40;;;;;;;27.23;52.62;97954.41;6194634;28;20264;-39
2023/07/17 14:14:16;;;;;;;3.00;2.70;;;;;;;27.10;52.90;97952.84;6191460;28;20789;-39
2023/07/17 14:17:18;;;;;;;3.88;2.95;;;;;;;27.40;53.64;97952.56;6177161;28;20247;-39
2023/07/17 14:20:20;;;;;;;3.95;2.60;;;;;;;27.28;53.88;97947.91;6190372;28;20239;-39
2023/07/17 14:23:23;;;;;;;2.72;2.53;;;;;;;27.18;54.53;97946.44;6191967;28;20710;-39